Time;durP1;ratioP1;P1;durP2;ratioP2;P2;SDS_P1;SDS_P2;PMS_P1;PMS_P2;Temp;Humidity;BMP_temperature;BMP_pressure;BME280_temperature;BME280_humidity;BME280_pressure;Samples;Min_cycle;Max_cycle;Signal;HPM_P1;HPM_P2
2021/12/05 00:23:43;;;;;;;3.47;1.25;;;;;;;-145.06;0.00;60892.56;4822024;28;20034;-88
2021/12/05 00:26:23;;;;;;;3.28;1.02;;;;;;;-145.06;0.00;60892.56;4827935;28;20483;-89
2021/12/05 00:29:15;;;;;;;2.53;0.95;;;;;;;-145.06;0.00;60892.56;4827138;28;20361;-88
2021/12/05 00:35:25;;;;;;;3.90;1.13;;;;;;;-145.06;0.00;60892.56;4830454;28;20026;-88
2021/12/05 00:41:21;;;;;;;3.95;1.00;;;;;;;-145.06;0.00;60892.56;4828028;28;20034;-89
2021/12/05 01:01:28;;;;;;;1.40;0.67;;;;;;;-145.06;0.00;60892.56;4844065;28;20037;-88
2021/12/05 01:15:14;;;;;;;2.80;1.20;;;;;;;-145.06;0.00;60892.56;4836563;28;20046;-88
2021/12/05 01:20:43;;;;;;;4.43;1.17;;;;;;;-145.06;0.00;60892.56;4824067;28;20034;-88
2021/12/05 01:23:51;;;;;;;4.28;1.10;;;;;;;-145.06;0.00;60892.56;4824538;28;20468;-89
2021/12/05 01:26:45;;;;;;;3.80;1.03;;;;;;;-145.06;0.00;60892.56;4825009;28;20030;-88
2021/12/05 01:42:24;;;;;;;3.90;1.25;;;;;;;-145.06;0.00;60892.56;4818720;28;20499;-88
2021/12/05 01:56:30;;;;;;;2.25;0.90;;;;;;;-145.06;0.00;60892.56;4826006;28;20475;-88
2021/12/05 02:37:13;;;;;;;1.88;0.80;;;;;;;-145.06;0.00;60892.56;4845966;28;20057;-89
2021/12/05 02:40:18;;;;;;;1.02;0.75;;;;;;;-145.06;0.00;60892.56;4807595;28;20031;-88
2021/12/05 02:43:12;;;;;;;1.75;0.82;;;;;;;-145.06;0.00;60892.56;4828409;28;20061;-89
2021/12/05 02:45:53;;;;;;;1.90;0.80;;;;;;;-145.06;0.00;60892.56;4834276;28;20377;-88
2021/12/05 02:48:36;;;;;;;3.20;0.57;;;;;;;-145.06;0.00;60892.56;4829044;28;20033;-88
2021/12/05 02:51:22;;;;;;;5.28;0.60;;;;;;;-145.06;0.00;60892.56;4826000;28;20029;-88
2021/12/05 02:54:08;;;;;;;1.75;0.65;;;;;;;-145.06;0.00;60892.56;4818331;28;20440;-88
2021/12/05 02:56:51;;;;;;;3.08;0.90;;;;;;;-145.06;0.00;60892.56;4826840;28;20034;-88
2021/12/05 03:02:18;;;;;;;2.58;1.00;;;;;;;-145.06;0.00;60892.56;4823280;28;20490;-89
2021/12/05 03:05:00;;;;;;;4.18;1.00;;;;;;;-145.06;0.00;60892.56;4818104;28;20029;-88
2021/12/05 03:07:42;;;;;;;4.60;0.80;;;;;;;-145.06;0.00;60892.56;4821637;28;20050;-88
2021/12/05 03:10:21;;;;;;;0.50;0.50;;;;;;;-145.06;0.00;60892.56;4838656;28;20027;-89
2021/12/05 03:13:00;;;;;;;;;;;;;;;-145.06;0.00;60892.56;4842445;28;20052;-87
2021/12/05 03:15:40;;;;;;;1.27;0.65;;;;;;;-145.06;0.00;60892.56;4804205;28;20371;-90
2021/12/05 03:18:19;;;;;;;2.30;0.98;;;;;;;187.52;0.00;60892.56;4828495;28;20065;-87
2021/12/05 03:20:58;;;;;;;1.27;0.80;;;;;;;-145.06;0.00;60892.56;4824602;28;20491;-87
2021/12/05 03:23:40;;;;;;;1.30;0.60;;;;;;;-145.06;0.00;60892.56;4846253;28;20923;-88
2021/12/05 03:26:25;;;;;;;0.70;0.60;;;;;;;-145.06;0.00;60892.56;4847732;28;20038;-89
2021/12/05 03:29:06;;;;;;;1.85;0.60;;;;;;;-145.06;0.00;60892.56;4829952;28;20042;-88
2021/12/05 03:31:46;;;;;;;1.42;0.75;;;;;;;-145.06;0.00;60892.56;4823173;28;20038;-87
2021/12/05 03:34:25;;;;;;;1.48;0.65;;;;;;;-145.06;0.00;60892.56;4820637;28;20037;-88
2021/12/05 03:37:06;;;;;;;1.95;0.57;;;;;;;-145.06;0.00;60892.56;4830215;28;20030;-88
2021/12/05 03:39:45;;;;;;;2.78;0.77;;;;;;;-145.06;0.00;60892.56;4833939;28;20042;-88
2021/12/05 03:42:24;;;;;;;1.92;0.70;;;;;;;-145.06;0.00;60892.56;4814687;28;20030;-88
2021/12/05 03:45:08;;;;;;;1.00;0.63;;;;;;;-145.06;0.00;60892.56;4815463;28;20069;-88
2021/12/05 03:47:48;;;;;;;0.93;0.60;;;;;;;-145.06;0.00;60892.56;4851635;28;20021;-88
2021/12/05 03:50:27;;;;;;;;;;;;;;;-145.06;0.00;60892.56;4828893;28;20037;-87
2021/12/05 03:53:08;;;;;;;1.25;0.60;;;;;;;-145.06;0.00;60892.56;4825350;28;19913;-88
2021/12/05 03:55:52;;;;;;;1.35;0.70;;;;;;;-145.06;0.00;60892.56;4821308;28;20034;-87
2021/12/05 03:58:32;;;;;;;1.58;0.50;;;;;;;-145.06;0.00;60892.56;4834623;28;20022;-88
2021/12/05 04:01:12;;;;;;;1.08;0.55;;;;;;;-145.06;0.00;60892.56;4839384;28;20033;-88
2021/12/05 04:03:54;;;;;;;1.58;0.50;;;;;;;-145.06;0.00;60892.56;4811860;28;20120;-87
2021/12/05 04:06:33;;;;;;;3.08;0.70;;;;;;;-145.06;0.00;60892.56;4824288;28;20025;-88
2021/12/05 04:09:15;;;;;;;0.65;0.60;;;;;;;-145.06;0.00;60892.56;4831044;28;20034;-88
2021/12/05 04:12:01;;;;;;;2.10;0.60;;;;;;;-145.06;0.00;60892.56;4823931;28;20034;-89
2021/12/05 04:14:44;;;;;;;1.10;0.45;;;;;;;-145.06;0.00;60892.56;4834740;28;20349;-89
2021/12/05 04:17:23;;;;;;;0.55;0.40;;;;;;;-145.06;0.00;60892.56;4822657;28;20113;-89
2021/12/05 04:20:03;;;;;;;0.60;0.50;;;;;;;-145.06;0.00;60892.56;4831034;28;20041;-88
2021/12/05 04:22:43;;;;;;;0.38;0.35;;;;;;;-145.06;0.00;60892.56;4822486;28;20034;-89
2021/12/05 04:25:22;;;;;;;0.43;0.43;;;;;;;-145.06;0.00;60892.56;4831805;28;20491;-89
2021/12/05 04:28:03;;;;;;;1.30;0.68;;;;;;;-145.06;0.00;60892.56;4833998;28;20030;-88
2021/12/05 04:30:42;;;;;;;0.60;0.45;;;;;;;-145.06;0.00;60892.56;4820807;28;20072;-88
2021/12/05 04:33:22;;;;;;;2.43;0.90;;;;;;;-145.06;0.00;60892.56;4844599;28;20064;-89
2021/12/05 04:36:01;;;;;;;1.08;0.52;;;;;;;-145.06;0.00;60892.56;4826597;28;20281;-88
2021/12/05 04:38:39;;;;;;;0.60;0.43;;;;;;;-145.06;0.00;60892.56;4824078;28;20491;-89
2021/12/05 04:41:19;;;;;;;0.80;0.55;;;;;;;-145.06;0.00;60892.56;4824153;28;20065;-88
2021/12/05 04:44:00;;;;;;;0.40;0.40;;;;;;;-145.06;0.00;60892.56;4826220;28;20072;-87
2021/12/05 04:46:40;;;;;;;0.90;0.50;;;;;;;-145.06;0.00;60892.56;4822391;28;20112;-88
2021/12/05 04:49:19;;;;;;;0.50;0.50;;;;;;;-145.06;0.00;60892.56;4817545;28;20034;-88
2021/12/05 04:51:58;;;;;;;0.68;0.57;;;;;;;-145.06;0.00;60892.56;4823264;28;20515;-90
2021/12/05 04:54:38;;;;;;;0.60;0.50;;;;;;;-145.06;0.00;60892.56;4826364;28;20483;-89
2021/12/05 04:57:17;;;;;;;1.00;0.40;;;;;;;-145.06;0.00;60892.56;4832541;28;20766;-88
2021/12/05 04:59:56;;;;;;;0.95;0.50;;;;;;;-145.06;0.00;60892.56;4839394;28;20041;-88
2021/12/05 05:02:35;;;;;;;0.47;0.40;;;;;;;-145.06;0.00;60892.56;4807995;28;20030;-89
2021/12/05 05:05:14;;;;;;;0.88;0.50;;;;;;;-145.06;0.00;60892.56;4818186;28;20062;-88
2021/12/05 05:07:54;;;;;;;;;;;;;;;-145.06;0.00;60892.56;4837455;28;20599;-88
2021/12/05 05:10:34;;;;;;;0.50;0.50;;;;;;;-145.06;0.00;60892.56;4821383;28;19913;-88
2021/12/05 05:13:13;;;;;;;;;;;;;;;-145.06;0.00;60892.56;4825241;28;20045;-88
2021/12/05 05:15:53;;;;;;;1.00;0.50;;;;;;;-145.06;0.00;60892.56;4841752;28;20016;-88
2021/12/05 05:18:52;;;;;;;0.82;0.45;;;;;;;-145.06;0.00;60892.56;4849804;28;20116;-88
2021/12/05 05:24:35;;;;;;;0.60;0.60;;;;;;;-145.06;0.00;60892.56;4839057;28;20033;-90
2021/12/05 05:47:52;;;;;;;0.82;0.50;;;;;;;-145.06;0.00;60892.56;4845459;28;20030;-88
2021/12/05 05:50:32;;;;;;;0.40;0.40;;;;;;;10.68;0.00;60892.56;4820693;28;20361;-89
2021/12/05 05:53:11;;;;;;;0.50;0.50;;;;;;;10.68;0.00;60892.56;4827419;28;20029;-88
2021/12/05 05:55:51;;;;;;;0.70;0.60;;;;;;;-145.06;0.00;60892.56;4817727;28;20600;-88
2021/12/05 05:58:45;;;;;;;0.43;0.43;;;;;;;-145.06;0.00;60892.56;4823973;28;20523;-88
2021/12/05 06:04:16;;;;;;;0.98;0.50;;;;;;;-145.06;0.00;60892.56;4821346;28;20484;-88
2021/12/05 06:06:55;;;;;;;1.20;0.50;;;;;;;-145.06;0.00;60892.56;4821226;28;20038;-88
2021/12/05 06:09:34;;;;;;;0.30;0.30;;;;;;;4.19;0.00;60892.56;4826051;28;20038;-88
2021/12/05 06:12:12;;;;;;;0.90;0.40;;;;;;;-145.06;0.00;60892.56;4808547;28;20500;-89
2021/12/05 06:14:51;;;;;;;1.90;0.40;;;;;;;4.18;0.00;60892.56;4834315;28;20261;-88
2021/12/05 06:17:31;;;;;;;0.80;0.50;;;;;;;4.16;0.00;60892.56;4827294;28;20268;-88
2021/12/05 06:20:13;;;;;;;0.97;0.57;;;;;;;4.14;0.00;60892.56;4833102;28;20034;-88
2021/12/05 06:22:54;;;;;;;0.82;0.43;;;;;;;21.08;0.00;60892.56;4821471;28;20038;-88
2021/12/05 06:25:36;;;;;;;1.90;0.80;;;;;;;187.52;0.00;60892.56;4828179;28;20030;-88
2021/12/05 06:28:17;;;;;;;1.50;0.85;;;;;;;187.52;0.00;60892.56;4825740;28;20483;-89
2021/12/05 06:39:50;;;;;;;5.45;2.20;;;;;;;-145.06;0.00;60892.56;4842144;28;20025;-88
2021/12/05 06:42:46;;;;;;;4.88;1.95;;;;;;;4.19;0.00;60892.56;4816641;28;20033;-89
2021/12/05 06:48:23;;;;;;;19.58;7.93;;;;;;;-145.06;0.00;60892.56;4840246;28;20038;-88
2021/12/05 06:51:04;;;;;;;20.67;7.55;;;;;;;-145.06;0.00;60892.56;4836929;28;20479;-89
2021/12/05 06:53:43;;;;;;;25.35;9.10;;;;;;;4.09;0.00;60892.56;4830758;28;20038;-89
2021/12/05 06:56:23;;;;;;;18.27;7.40;;;;;;;-145.06;0.00;60892.56;4830293;28;20033;-88
2021/12/05 06:59:02;;;;;;;;;;;;;;;-145.06;0.00;60892.56;4832964;28;20030;-88
2021/12/05 07:01:41;;;;;;;10.90;4.07;;;;;;;-145.06;0.00;60892.56;4817361;28;19956;-88
2021/12/05 07:07:23;;;;;;;6.55;2.67;;;;;;;-145.06;0.00;60892.56;4828273;28;20829;-89
2021/12/05 07:10:05;;;;;;;4.30;2.05;;;;;;;-145.06;0.00;60892.56;4817957;28;20030;-88
2021/12/05 07:15:45;;;;;;;3.45;1.30;;;;;;;-145.06;0.00;60892.56;4829014;28;20033;-89
2021/12/05 07:23:57;;;;;;;1.42;0.90;;;;;;;4.51;0.00;60892.56;4838000;28;20034;-89
2021/12/05 07:44:32;;;;;;;0.50;0.50;;;;;;;-145.06;0.00;60892.56;4833555;28;20046;-88
2021/12/05 07:47:15;;;;;;;0.80;0.57;;;;;;;-145.06;0.00;60892.56;4808219;28;20034;-89
2021/12/05 07:49:56;;;;;;;0.60;0.60;;;;;;;-145.06;0.00;60892.56;4826467;28;20042;-88
2021/12/05 07:52:40;;;;;;;1.35;0.70;;;;;;;-145.06;0.00;60892.56;4821639;28;20373;-89
2021/12/05 07:55:28;;;;;;;0.68;0.57;;;;;;;-145.06;0.00;60892.56;4813508;28;20077;-88
2021/12/05 07:58:28;;;;;;;1.33;0.50;;;;;;;-145.06;0.00;60892.56;4828943;28;20364;-88
2021/12/05 08:16:19;;;;;;;0.77;0.52;;;;;;;-145.06;0.00;60892.56;4828971;28;20034;-88
2021/12/05 08:18:59;;;;;;;0.50;0.40;;;;;;;5.17;0.00;60892.56;4835725;28;20034;-87
2021/12/05 08:21:39;;;;;;;0.80;0.50;;;;;;;-145.06;0.00;60892.56;4817907;28;20488;-87
2021/12/05 08:24:18;;;;;;;;;;;;;;;-145.06;0.00;60892.56;4818743;28;20022;-88
2021/12/05 08:26:57;;;;;;;0.60;0.60;;;;;;;5.27;0.00;60892.56;4828821;28;19956;-89
2021/12/05 08:29:50;;;;;;;1.13;0.40;;;;;;;5.27;0.00;60892.56;4821465;28;20617;-88
2021/12/05 08:32:39;;;;;;;0.40;0.40;;;;;;;-145.06;0.00;60892.56;4821224;28;20041;-88
2021/12/05 08:44:54;;;;;;;0.52;0.52;;;;;;;-145.06;0.00;60892.56;4833341;28;20065;-88
2021/12/05 10:09:48;;;;;;;2.53;1.20;;;;;;;10.68;0.00;60892.56;4832168;28;20088;-88
2021/12/05 10:27:23;;;;;;;1.10;0.90;;;;;;;-145.06;0.00;60892.56;4828712;28;20038;-87
2021/12/05 10:38:52;;;;;;;1.30;0.70;;;;;;;-145.06;0.00;60892.56;4813976;28;20796;-87
2021/12/05 10:44:13;;;;;;;0.77;0.60;;;;;;;-145.06;0.00;60892.56;4826288;28;20029;-88
2021/12/05 10:46:52;;;;;;;0.68;0.60;;;;;;;-145.06;0.00;60892.56;4800074;28;20477;-88
2021/12/05 10:49:32;;;;;;;0.80;0.60;;;;;;;-145.06;0.00;60892.56;4823802;28;20129;-88
2021/12/05 10:52:13;;;;;;;0.77;0.57;;;;;;;-145.06;0.00;60892.56;4815583;28;20045;-87
2021/12/05 10:54:56;;;;;;;0.77;0.63;;;;;;;-145.06;0.00;60892.56;4819162;28;20030;-88
2021/12/05 10:57:41;;;;;;;2.08;0.80;;;;;;;-145.06;0.00;60892.56;4814672;28;20472;-88
2021/12/05 11:00:20;;;;;;;1.55;0.80;;;;;;;-145.06;0.00;60892.56;4804905;28;20027;-88
2021/12/05 11:03:23;;;;;;;0.90;0.80;;;;;;;-145.06;0.00;60892.56;4821308;28;20041;-87
2021/12/05 11:06:20;;;;;;;2.47;0.70;;;;;;;-145.06;0.00;60892.56;4815560;28;20038;-87
2021/12/05 11:09:07;;;;;;;0.93;0.80;;;;;;;-145.06;0.00;60892.56;4818077;28;20798;-87
2021/12/05 11:12:05;;;;;;;0.88;0.50;;;;;;;-145.06;0.00;60892.56;4806502;28;20030;-87
2021/12/05 11:14:58;;;;;;;1.95;0.50;;;;;;;-145.06;0.00;60892.56;4809664;28;20380;-87
2021/12/05 11:17:41;;;;;;;0.70;0.63;;;;;;;-145.06;0.00;60892.56;4811683;28;20026;-87
2021/12/05 11:20:30;;;;;;;0.82;0.60;;;;;;;-145.06;0.00;60892.56;4809347;28;20038;-88
2021/12/05 11:23:18;;;;;;;0.98;0.60;;;;;;;-145.06;0.00;60892.56;4807362;28;20368;-88
2021/12/05 11:25:56;;;;;;;1.10;0.70;;;;;;;-145.06;0.00;60892.56;4823919;28;20065;-88
2021/12/05 11:28:35;;;;;;;0.50;0.40;;;;;;;-145.06;0.00;60892.56;4808207;28;20026;-88
2021/12/05 11:31:31;;;;;;;0.57;0.50;;;;;;;-145.06;0.00;60892.56;4809123;28;20112;-87
2021/12/05 11:34:10;;;;;;;0.88;0.40;;;;;;;7.07;0.00;60892.56;4812475;28;20034;-87
2021/12/05 11:36:56;;;;;;;0.30;0.30;;;;;;;7.44;0.00;60892.56;4804842;28;20476;-88
2021/12/05 11:39:36;;;;;;;1.45;0.60;;;;;;;-145.06;0.00;60892.56;4808090;28;20034;-87
2021/12/05 11:42:21;;;;;;;1.60;0.50;;;;;;;-145.06;0.00;60892.56;4803295;28;20747;-87
2021/12/05 11:45:05;;;;;;;0.60;0.47;;;;;;;-145.06;0.00;60892.56;4818323;28;20132;-88
2021/12/05 11:47:44;;;;;;;0.75;0.40;;;;;;;-145.06;0.00;60892.56;4823814;28;20026;-87
2021/12/05 11:50:36;;;;;;;0.50;0.50;;;;;;;-145.06;0.00;60892.56;4815406;28;20041;-87
2021/12/05 11:53:32;;;;;;;0.40;0.40;;;;;;;-145.06;0.00;60892.56;4819366;28;20745;-88
2021/12/05 11:56:39;;;;;;;1.55;0.40;;;;;;;-145.06;0.00;60892.56;4820569;28;20042;-88
2021/12/05 11:59:36;;;;;;;0.60;0.47;;;;;;;-145.06;0.00;60892.56;4820715;28;20062;-87
2021/12/05 12:02:26;;;;;;;0.47;0.38;;;;;;;7.60;0.00;60892.56;4808484;28;20034;-89
2021/12/05 12:05:05;;;;;;;0.60;0.55;;;;;;;-145.06;0.00;60892.56;4823237;28;20038;-87
2021/12/05 12:07:52;;;;;;;0.52;0.52;;;;;;;-145.06;0.00;60892.56;4821526;28;20037;-89
2021/12/05 12:10:47;;;;;;;0.40;0.40;;;;;;;-145.06;0.00;60892.56;4814798;28;20073;-87
2021/12/05 12:13:34;;;;;;;0.30;0.30;;;;;;;-145.06;0.00;60892.56;4807222;28;20030;-88
2021/12/05 12:16:14;;;;;;;0.43;0.40;;;;;;;-145.06;0.00;60892.56;4809068;28;20037;-89
2021/12/05 12:18:53;;;;;;;0.50;0.47;;;;;;;7.60;0.00;60892.56;4822642;28;20069;-88
2021/12/05 12:21:39;;;;;;;0.82;0.52;;;;;;;-145.06;0.00;60892.56;4807328;28;20690;-88
2021/12/05 12:24:19;;;;;;;0.40;0.40;;;;;;;-145.06;0.00;60892.56;4811129;28;20113;-89
2021/12/05 12:26:58;;;;;;;0.50;0.50;;;;;;;-145.06;0.00;60892.56;4829756;28;20037;-88
2021/12/05 12:29:38;;;;;;;0.50;0.40;;;;;;;-145.06;0.00;60892.56;4823069;28;20026;-89
2021/12/05 12:32:23;;;;;;;0.40;0.40;;;;;;;-145.06;0.00;60892.56;4807582;28;20041;-88
2021/12/05 12:35:12;;;;;;;0.60;0.50;;;;;;;-145.06;0.00;60892.56;4813157;28;20496;-88
2021/12/05 12:38:01;;;;;;;0.77;0.63;;;;;;;-145.06;0.00;60892.56;4810093;28;20125;-88
2021/12/05 12:40:40;;;;;;;1.58;0.40;;;;;;;-145.06;0.00;60892.56;4821864;28;20038;-89
2021/12/05 12:43:38;;;;;;;0.67;0.50;;;;;;;-145.06;0.00;60892.56;4812037;28;20042;-88
2021/12/05 12:46:20;;;;;;;0.40;0.40;;;;;;;-145.06;0.00;60892.56;4822624;28;20034;-88
2021/12/05 12:49:20;;;;;;;1.73;1.13;;;;;;;-145.06;0.00;60892.56;4812293;28;20046;-88
2021/12/05 12:52:02;;;;;;;2.47;1.20;;;;;;;-145.06;0.00;60892.56;4812973;28;20129;-88
2021/12/05 12:54:44;;;;;;;2.90;1.85;;;;;;;-145.06;0.00;60892.56;4806991;28;20038;-88
2021/12/05 12:57:31;;;;;;;2.22;1.48;;;;;;;-145.06;0.00;60892.56;4825512;28;20495;-87
2021/12/05 13:00:16;;;;;;;1.90;1.38;;;;;;;7.76;0.00;60892.56;4807704;28;20372;-87
2021/12/05 13:03:02;;;;;;;2.00;1.10;;;;;;;8.08;0.00;60892.56;4813204;28;20046;-89
2021/12/05 13:11:30;;;;;;;1.20;0.90;;;;;;;8.08;0.00;60892.56;4820250;28;20046;-89
2021/12/05 13:14:10;;;;;;;1.15;0.82;;;;;;;-145.06;0.00;60892.56;4816256;28;20041;-88
2021/12/05 13:16:49;;;;;;;1.15;1.00;;;;;;;-145.06;0.00;60892.56;4807551;28;20046;-89
2021/12/05 13:19:28;;;;;;;1.05;0.77;;;;;;;-145.06;0.00;60892.56;4806907;28;20034;-89
2021/12/05 13:22:07;;;;;;;1.00;0.90;;;;;;;8.08;0.00;60892.56;4832427;28;20030;-89
2021/12/05 13:25:05;;;;;;;1.73;1.33;;;;;;;21.08;0.00;60892.56;4812321;28;20038;-88
2021/12/05 13:27:44;;;;;;;1.42;1.20;;;;;;;-145.06;0.00;60892.56;4812434;28;20492;-89
2021/12/05 13:30:34;;;;;;;0.93;0.80;;;;;;;-145.06;0.00;60892.56;4821888;28;20034;-89
2021/12/05 13:33:19;;;;;;;1.10;0.80;;;;;;;-145.06;0.00;60892.56;4807430;28;20109;-89
2021/12/05 13:36:32;;;;;;;1.33;0.75;;;;;;;-145.06;0.00;60892.56;4814386;28;20034;-88
2021/12/05 13:39:30;;;;;;;0.80;0.60;;;;;;;-145.06;0.00;60892.56;4813373;28;20034;-89
2021/12/05 13:42:14;;;;;;;0.68;0.50;;;;;;;-145.06;0.00;60892.56;4832743;28;20697;-88
2021/12/05 13:45:00;;;;;;;0.57;0.40;;;;;;;-145.06;0.00;60892.56;4814705;28;20029;-88
2021/12/05 13:48:10;;;;;;;0.45;0.40;;;;;;;-145.06;0.00;60892.56;4811978;28;20038;-89
2021/12/05 13:50:51;;;;;;;0.45;0.40;;;;;;;-145.06;0.00;60892.56;4804905;28;20042;-88
2021/12/05 13:53:47;;;;;;;0.75;0.60;;;;;;;-145.06;0.00;60892.56;4819717;28;20120;-89
2021/12/05 13:56:31;;;;;;;1.08;0.60;;;;;;;-145.06;0.00;60892.56;4810062;28;20374;-89
2021/12/05 13:59:11;;;;;;;0.50;0.50;;;;;;;-145.06;0.00;60892.56;4814349;28;20531;-88
2021/12/05 14:01:51;;;;;;;;;;;;;;;-145.06;0.00;60892.56;4816804;28;20113;-87
2021/12/05 14:04:34;;;;;;;1.25;0.82;;;;;;;-145.06;0.00;60892.56;4821713;28;20015;-88
2021/12/05 14:07:18;;;;;;;1.70;1.13;;;;;;;-145.06;0.00;60892.56;4809170;28;20030;-88
2021/12/05 14:09:58;;;;;;;1.50;1.00;;;;;;;-145.06;0.00;60892.56;4822685;28;20484;-89
2021/12/05 14:12:41;;;;;;;2.17;0.98;;;;;;;-145.06;0.00;60892.56;4814568;28;20042;-88
2021/12/05 14:15:20;;;;;;;1.13;0.80;;;;;;;-145.06;0.00;60892.56;4818021;28;20030;-89
2021/12/05 14:18:03;;;;;;;1.00;0.68;;;;;;;-145.06;0.00;60892.56;4811731;28;20500;-88
2021/12/05 14:20:42;;;;;;;0.63;0.63;;;;;;;-145.06;0.00;60892.56;4816712;28;20378;-90
2021/12/05 14:23:21;;;;;;;0.60;0.60;;;;;;;-145.06;0.00;60892.56;4830925;28;20034;-89
2021/12/05 14:26:13;;;;;;;0.60;0.60;;;;;;;-145.06;0.00;60892.56;4819026;28;20026;-88
2021/12/05 14:29:14;;;;;;;0.50;0.50;;;;;;;-145.06;0.00;60892.56;4813067;28;20019;-87
2021/12/05 14:31:55;;;;;;;0.80;0.60;;;;;;;-145.06;0.00;60892.56;4830404;28;20124;-88
2021/12/05 14:34:36;;;;;;;0.80;0.52;;;;;;;-145.06;0.00;60892.56;4820575;28;20116;-88
2021/12/05 14:37:19;;;;;;;0.85;0.60;;;;;;;-145.06;0.00;60892.56;4812763;28;20026;-87
2021/12/05 14:40:03;;;;;;;0.52;0.50;;;;;;;-145.06;0.00;60892.56;4815653;28;20376;-88
2021/12/05 14:42:46;;;;;;;0.55;0.50;;;;;;;8.08;0.00;60892.56;4810212;28;20026;-89
2021/12/05 14:45:28;;;;;;;0.80;0.70;;;;;;;-145.06;0.00;60892.56;4816078;28;20033;-88
2021/12/05 14:48:10;;;;;;;0.55;0.40;;;;;;;-145.06;0.00;60892.56;4812935;28;20030;-89
2021/12/05 14:50:54;;;;;;;0.88;0.60;;;;;;;-145.06;0.00;60892.56;4827481;28;20041;-87
2021/12/05 14:53:40;;;;;;;0.80;0.60;;;;;;;7.44;0.00;60892.56;4811493;28;20705;-87
2021/12/05 14:56:30;;;;;;;0.70;0.60;;;;;;;10.68;0.00;60892.56;4821858;28;20030;-88
2021/12/05 14:59:12;;;;;;;0.60;0.60;;;;;;;-145.06;0.00;60892.56;4813551;28;20034;-87
2021/12/05 15:01:56;;;;;;;0.70;0.60;;;;;;;8.08;0.00;60892.56;4811662;28;20030;-87
2021/12/05 15:05:02;;;;;;;0.55;0.40;;;;;;;-145.06;0.00;60892.56;4809417;28;20027;-86
2021/12/05 15:07:43;;;;;;;0.85;0.52;;;;;;;-145.06;0.00;60892.56;4815586;28;20033;-87
2021/12/05 15:10:23;;;;;;;0.38;0.38;;;;;;;-145.06;0.00;60892.56;4808818;28;20026;-88
2021/12/05 15:13:02;;;;;;;0.50;0.50;;;;;;;8.08;0.00;60892.56;4814984;28;20483;-86
2021/12/05 15:15:42;;;;;;;0.40;0.40;;;;;;;-145.06;0.00;60892.56;4826489;28;20030;-87
2021/12/05 15:18:28;;;;;;;0.60;0.60;;;;;;;-145.06;0.00;60892.56;4815219;28;20065;-86
